createdAt,value
2018-02-15T09:19:53.842Z,23.47
2018-02-15T09:22:21.378Z,22.70
2018-02-15T09:24:48.918Z,30.73
2018-02-15T09:27:17.234Z,25.80
2018-02-15T09:29:44.770Z,34.33
2018-02-15T09:32:12.322Z,26.67
2018-02-15T09:34:40.634Z,31.70
2018-02-15T09:37:08.186Z,24.80
2018-02-15T09:39:35.726Z,29.57
2018-02-15T09:42:03.266Z,25.67
2018-02-15T09:44:31.574Z,69.87
2018-02-15T09:47:00.099Z,34.27
2018-02-15T09:49:27.663Z,56.33
2018-02-15T09:51:55.191Z,27.23
2018-02-15T09:54:22.716Z,40.33
2018-02-15T09:56:51.025Z,32.60
2018-02-15T09:59:18.583Z,30.80
2018-02-15T10:01:46.132Z,42.30
2018-02-15T10:04:13.667Z,31.03
2018-02-15T10:06:42.009Z,35.20
2018-02-15T10:09:09.562Z,38.87
2018-02-15T10:11:37.107Z,32.77
2018-02-15T10:14:04.639Z,36.50
2018-02-15T10:16:32.187Z,34.20
2018-02-15T10:19:00.495Z,32.93
2018-02-15T10:21:28.071Z,33.70
2018-02-15T10:23:55.633Z,31.67
2018-02-15T10:26:23.158Z,33.90
2018-02-15T10:28:50.726Z,32.87
2018-02-15T10:31:18.263Z,33.47
2018-02-15T10:33:46.582Z,34.53
2018-02-15T10:36:14.236Z,31.67
2018-02-15T10:38:41.790Z,34.30
2018-02-15T10:41:09.339Z,29.67
2018-02-15T10:43:36.946Z,31.73
2018-02-15T10:46:04.496Z,30.00
2018-02-15T10:48:32.031Z,30.83
2018-02-15T10:50:59.580Z,28.23
2018-02-15T10:53:27.134Z,28.83
2018-02-15T10:55:54.702Z,27.20
2018-02-15T10:58:22.247Z,29.03
2018-02-15T11:00:56.195Z,32.00
2018-02-15T11:03:29.314Z,31.93
2018-02-15T11:06:00.855Z,28.33
2018-02-15T11:08:28.381Z,34.27
2018-02-15T11:10:55.903Z,29.20
2018-02-15T11:13:24.219Z,28.00
2018-02-15T11:15:51.794Z,23.27
2018-02-15T11:18:19.339Z,24.67
2018-02-15T11:20:47.893Z,28.37
2018-02-15T11:23:16.229Z,30.37
2018-02-15T11:25:43.751Z,28.87
2018-02-15T11:28:11.311Z,25.80
2018-02-15T11:30:38.907Z,23.97
2018-02-15T11:33:06.440Z,25.60
2018-02-15T11:35:33.987Z,24.83
2018-02-15T11:38:01.550Z,29.00
2018-02-15T11:40:29.150Z,22.87
2018-02-15T11:42:56.674Z,21.37
2018-02-15T11:45:24.239Z,24.50
2018-02-15T11:47:51.790Z,69.57
2018-02-15T11:50:19.329Z,19.63
2018-02-15T11:52:47.636Z,25.70
2018-02-15T11:55:15.223Z,34.43
2018-02-15T11:57:42.797Z,25.60
2018-02-15T12:00:10.366Z,23.13
2018-02-15T12:02:37.946Z,24.20
2018-02-15T12:05:05.510Z,19.60
2018-02-15T12:07:33.823Z,37.03
2018-02-15T12:10:01.463Z,23.00
2018-02-15T12:12:29.014Z,21.23
2018-02-15T12:14:57.323Z,19.93
2018-02-15T12:17:24.854Z,19.83
2018-02-15T12:19:52.459Z,24.40
2018-02-15T12:22:20.101Z,24.90
2018-02-15T12:24:47.727Z,19.10
2018-02-15T12:27:16.026Z,24.83
2018-02-15T12:29:43.599Z,19.17
2018-02-15T12:32:11.220Z,19.83
2018-02-15T12:34:39.756Z,29.70
2018-02-15T12:37:07.422Z,25.70
2018-02-15T12:39:34.986Z,18.17
2018-02-15T12:42:02.583Z,21.60
2018-02-15T12:44:30.905Z,16.43
2018-02-15T12:46:58.465Z,19.13
2018-02-15T12:49:25.994Z,22.20
2018-02-15T12:51:54.304Z,20.43
2018-02-15T12:54:21.972Z,17.00
2018-02-15T12:56:50.523Z,21.80
2018-02-15T12:59:18.091Z,21.30
2018-02-15T13:01:45.647Z,16.30
2018-02-15T13:04:13.243Z,20.90
2018-02-15T13:06:40.823Z,20.43
2018-02-15T13:09:08.358Z,20.37
2018-02-15T13:11:35.882Z,19.53
2018-02-15T13:14:04.182Z,17.13
2018-02-15T13:19:41.508Z,22.73
2018-02-15T13:22:20.767Z,20.87
2018-02-15T13:24:48.295Z,20.40
2018-02-15T13:27:16.834Z,16.27
2018-02-15T13:29:45.135Z,18.97
2018-02-15T13:32:12.748Z,17.27
2018-02-15T13:34:40.281Z,23.90
2018-02-15T13:37:07.818Z,30.83
2018-02-15T13:39:35.371Z,20.33
2018-02-15T13:42:02.914Z,18.40
2018-02-15T13:47:06.354Z,18.00
2018-02-15T13:49:33.911Z,18.53
2018-02-15T13:52:01.472Z,19.87
2018-02-15T13:54:29.031Z,25.43
2018-02-15T13:56:56.583Z,23.23
2018-02-15T13:59:24.151Z,19.00
2018-02-15T14:01:51.692Z,20.83
2018-02-15T14:04:20.002Z,29.13
2018-02-15T14:06:48.829Z,17.47
2018-02-15T14:09:17.482Z,17.90
2018-02-15T14:11:45.055Z,18.20
2018-02-15T14:14:12.699Z,15.97
2018-02-15T14:16:40.257Z,18.33
2018-02-15T14:19:07.818Z,18.13
2018-02-15T14:21:35.460Z,18.47
2018-02-15T14:24:03.016Z,16.00
2018-02-15T14:26:30.691Z,17.33
2018-02-15T14:28:58.389Z,35.70
2018-02-15T14:31:26.247Z,23.33
2018-02-15T14:33:53.778Z,18.40
2018-02-15T14:36:21.342Z,23.63
2018-02-15T14:38:48.880Z,16.30
2018-02-15T14:41:17.303Z,16.03
2018-02-15T14:43:44.848Z,17.40
2018-02-15T14:46:12.394Z,15.90
2018-02-15T14:48:39.938Z,22.73
2018-02-15T14:51:08.251Z,16.23
2018-02-15T14:53:35.779Z,22.00
2018-02-15T14:56:04.110Z,20.53
2018-02-15T14:58:31.749Z,20.37
2018-02-15T15:01:00.446Z,16.90
2018-02-15T15:03:27.991Z,21.63
2018-02-15T15:05:56.457Z,22.93
2018-02-15T15:08:24.027Z,16.10
2018-02-15T15:10:51.705Z,16.30
2018-02-15T15:13:19.364Z,14.93
2018-02-15T15:15:46.942Z,19.00
2018-02-15T15:18:14.540Z,22.00
2018-02-15T15:20:42.063Z,17.07
2018-02-15T15:23:09.662Z,20.30
2018-02-15T15:25:37.989Z,19.63
2018-02-15T15:28:05.623Z,23.50
2018-02-15T15:30:33.245Z,24.43
2018-02-15T15:33:00.792Z,19.13
2018-02-15T15:35:28.338Z,16.13
2018-02-15T15:37:55.934Z,16.30
2018-02-15T15:40:23.465Z,16.77
2018-02-15T15:42:51.025Z,15.20
2018-02-15T15:45:18.579Z,15.90
2018-02-15T15:50:11.728Z,20.50
2018-02-15T15:52:39.352Z,15.77
2018-02-15T15:55:07.751Z,21.13
2018-02-15T15:57:35.564Z,19.83
2018-02-15T16:00:03.184Z,16.00
2018-02-15T16:02:30.746Z,16.83
2018-02-15T22:05:21.863Z,44.77
2018-02-15T22:07:49.499Z,43.37
2018-02-15T22:10:17.080Z,51.90
2018-02-15T22:12:44.747Z,44.93
2018-02-15T22:15:12.323Z,47.33
2018-02-15T22:17:39.815Z,45.27
2018-02-15T22:20:08.132Z,48.03
2018-02-15T22:22:35.743Z,49.17
2018-02-15T22:25:03.266Z,37.97
2018-02-15T22:27:32.006Z,40.80
2018-02-15T22:30:01.481Z,44.83
2018-02-15T22:32:29.058Z,135.57
2018-02-15T22:34:57.411Z,159.17
2018-02-15T22:37:24.930Z,47.67
2018-02-15T22:39:52.490Z,36.77
2018-02-15T22:42:20.026Z,42.97
2018-02-15T22:44:48.326Z,50.67
2018-02-15T22:47:15.876Z,38.70
2018-02-15T22:49:44.190Z,34.33
2018-02-15T22:52:11.722Z,42.03
2018-02-15T22:54:39.257Z,42.17
2018-02-15T22:57:07.598Z,36.97
2018-02-15T22:59:35.154Z,39.07
2018-02-15T23:02:02.724Z,39.00
2018-02-15T23:04:30.264Z,44.87
2018-02-15T23:06:57.831Z,35.13
2018-02-15T23:09:25.325Z,43.77
2018-02-15T23:11:52.847Z,33.57
2018-02-15T23:14:20.345Z,40.60
2018-02-15T23:16:47.849Z,47.83
2018-02-15T23:19:15.356Z,41.90
2018-02-15T23:21:42.872Z,48.43
2018-02-15T23:24:10.377Z,36.63
2018-02-15T23:26:37.978Z,44.27
2018-02-15T23:29:05.531Z,38.10
2018-02-15T23:31:33.122Z,40.67
2018-02-15T23:34:00.653Z,40.77
2018-02-15T23:36:28.214Z,46.40
2018-02-15T23:38:55.750Z,49.83
